Time;durP1;ratioP1;P1;durP2;ratioP2;P2;SDS_P1;SDS_P2;PMS_P1;PMS_P2;Temp;Humidity;BMP_temperature;BMP_pressure;BME280_temperature;BME280_humidity;BME280_pressure;Samples;Min_cycle;Max_cycle;Signal;HPM_P1;HPM_P2
2022/10/11 00:00:12;;;;;;;;;4.25;2.75;;;;;12.59;71.32;101436.31;5096646;27;45460;-86
2022/10/11 00:02:37;;;;;;;;;3.00;2.00;;;;;12.70;71.25;101467.13;5086494;27;46662;-86
2022/10/11 00:05:03;;;;;;;;;5.00;3.00;;;;;12.55;71.71;101436.41;5086344;27;45304;-86
2022/10/11 00:07:28;;;;;;;;;2.00;1.25;;;;;12.43;70.73;101421.53;5096372;27;45650;-86
2022/10/11 00:09:54;;;;;;;;;3.00;2.00;;;;;12.23;70.84;101398.81;5080167;27;45572;-87
2022/10/11 00:12:19;;;;;;;;;2.25;2.25;;;;;13.02;70.78;101522.34;5056925;28;48119;-87
2022/10/11 00:14:45;;;;;;;;;1.75;1.75;;;;;12.47;71.32;101444.47;5075583;28;45366;-86
2022/10/11 00:17:10;;;;;;;;;2.25;1.75;;;;;12.31;70.57;101421.72;5079361;28;45438;-86
2022/10/11 00:19:35;;;;;;;;;4.75;2.00;;;;;12.42;71.23;101446.31;5085035;27;45603;-86
2022/10/11 00:22:01;;;;;;;;;3.00;1.25;;;;;11.81;70.82;101353.44;5074159;27;47763;-87
2022/10/11 00:24:26;;;;;;;;;2.25;2.25;;;;;12.43;70.35;101448.94;5076845;27;45741;-87
2022/10/11 00:26:51;;;;;;;;;3.25;3.25;;;;;12.53;70.48;101465.59;5094188;27;45429;-86
2022/10/11 00:29:17;;;;;;;;;1.25;1.25;;;;;12.14;71.37;101425.47;5074956;27;45440;-87
2022/10/11 00:31:42;;;;;;;;;4.75;4.00;;;;;12.95;70.45;101553.41;5076005;27;48207;-87
2022/10/11 00:34:09;;;;;;;;;1.50;1.25;;;;;12.50;70.18;101493.94;5095814;27;45488;-86
2022/10/11 00:36:34;;;;;;;;;2.50;1.00;;;;;11.93;70.11;101393.94;5076821;27;45354;-86
2022/10/11 00:38:59;;;;;;;;;3.50;2.50;;;;;11.20;70.29;101267.69;5069055;28;45392;-87
2022/10/11 00:41:25;;;;;;;;;3.75;1.00;;;;;12.27;70.47;101465.94;5088874;27;46979;-87
2022/10/11 00:44:15;;;;;;;;;4.75;2.75;;;;;12.61;69.93;101516.72;5092860;27;45580;-87
2022/10/11 00:46:44;;;;;;;;;3.00;2.00;;;;;12.11;70.53;101454.66;5076458;27;45458;-87
2022/10/11 00:49:16;;;;;;;;;5.00;2.00;;;;;12.77;69.92;101567.81;5061506;28;45623;-87
2022/10/11 00:52:39;;;;;;;;;1.00;1.00;;;;;12.31;70.26;101491.50;5074836;27;46039;-86
2022/10/11 00:55:08;;;;;;;;;0.75;0.75;;;;;12.13;70.07;101460.81;5014350;28;45568;-87
2022/10/11 00:57:38;;;;;;;;;2.00;1.25;;;;;11.54;69.40;101381.13;5014266;28;45464;-87
2022/10/11 01:00:09;;;;;;;;;5.00;2.00;;;;;12.58;69.47;101537.13;5030920;28;45631;-87
2022/10/11 01:02:35;;;;;;;;;1.50;1.50;;;;;12.10;69.70;101466.16;5010282;28;48190;-88
2022/10/11 01:05:01;;;;;;;;;0.00;0.00;;;;;12.69;69.37;101561.72;4994734;28;45508;-88
2022/10/11 01:07:30;;;;;;;;;4.25;3.00;;;;;12.69;69.55;101572.31;5011349;28;45511;-86
2022/10/11 01:09:55;;;;;;;;;3.50;2.00;;;;;12.66;68.76;101566.19;5004663;28;45384;-87
2022/10/11 01:12:25;;;;;;;;;2.00;1.25;;;;;12.21;69.25;101495.19;5019349;28;46951;-87
2022/10/11 01:15:05;;;;;;;;;2.25;1.50;;;;;12.61;69.49;101559.16;4996336;28;45733;-87
2022/10/11 01:17:31;;;;;;;;;3.00;2.00;;;;;12.61;69.05;101564.47;4995428;28;45502;-87
2022/10/11 01:20:20;;;;;;;;;1.50;1.50;;;;;12.62;68.40;101560.94;5005529;28;45440;-86
2022/10/11 01:22:54;;;;;;;;;2.00;2.00;;;;;12.61;68.94;101553.84;5032539;28;47316;-87
2022/10/11 01:25:46;;;;;;;;;1.75;1.00;;;;;12.20;68.36;101488.97;4998424;28;45467;-88
2022/10/11 01:28:34;;;;;;;;;1.75;1.75;;;;;12.27;68.94;101511.88;5017139;28;45699;-87
2022/10/11 01:31:26;;;;;;;;;1.00;1.00;;;;;12.05;68.60;101482.09;5087923;27;45518;-87
2022/10/11 01:34:03;;;;;;;;;2.00;2.00;;;;;11.88;68.08;101469.00;5053989;28;47488;-87
2022/10/11 01:36:53;;;;;;;;;2.75;1.00;;;;;12.45;68.47;101568.22;5059173;28;45495;-87
2022/10/11 01:39:30;;;;;;;;;1.00;1.00;;;;;12.26;68.84;101547.22;5067400;27;45610;-87
2022/10/11 01:41:59;;;;;;;;;0.00;0.00;;;;;12.34;68.32;101575.41;5078370;28;45398;-87
2022/10/11 01:44:27;;;;;;;;;1.50;1.00;;;;;11.10;69.02;101367.47;5063137;28;47254;-87
2022/10/11 01:46:52;;;;;;;;;1.50;1.00;;;;;11.71;68.74;101478.91;5058962;28;45943;-88
2022/10/11 01:49:18;;;;;;;;;3.00;1.75;;;;;11.67;68.98;101483.34;5066362;27;45466;-87
2022/10/11 01:51:51;;;;;;;;;2.25;1.25;;;;;11.63;68.93;101481.66;5097833;27;45334;-87
2022/10/11 01:54:35;;;;;;;;;1.00;1.00;;;;;12.17;69.38;101572.97;5108777;27;46900;-85
2022/10/11 01:57:35;;;;;;;;;1.00;1.00;;;;;12.11;69.60;101560.66;5087817;27;45714;-87
2022/10/11 02:00:22;;;;;;;;;1.00;1.00;;;;;11.56;69.03;101464.94;5085000;28;45304;-86
2022/10/11 02:03:15;;;;;;;;;1.00;1.00;;;;;12.14;69.26;101562.41;5091551;27;45662;-86
2022/10/11 02:05:58;;;;;;;;;3.00;2.00;;;;;11.54;69.37;101479.97;5077411;28;48241;-86
2022/10/11 02:08:24;;;;;;;;;3.00;1.25;;;;;12.07;69.07;101558.91;5073125;27;46162;-86
2022/10/11 02:11:07;;;;;;;;;5.00;1.25;;;;;12.05;69.52;101561.56;5068265;28;45500;-86
2022/10/11 02:13:36;;;;;;;;;4.75;2.75;;;;;11.72;69.92;101501.84;5062878;27;45624;-86
2022/10/11 02:16:07;;;;;;;;;8.00;4.00;;;;;10.86;69.18;101357.13;5078372;27;47012;-86
2022/10/11 02:18:38;;;;;;;;;5.75;2.75;;;;;11.24;68.80;101420.25;5094262;27;45608;-87
2022/10/11 02:21:09;;;;;;;;;3.00;1.00;;;;;11.66;68.92;101486.91;5096875;27;45371;-86
2022/10/11 02:23:59;;;;;;;;;2.00;2.00;;;;;11.19;68.46;101430.88;5095836;27;45406;-86
2022/10/11 02:26:29;;;;;;;;;2.75;1.75;;;;;10.78;68.61;101358.06;5086089;27;48221;-88
2022/10/11 02:29:00;;;;;;;;;4.75;2.25;;;;;11.52;68.54;101473.81;5090710;27;45825;-87
2022/10/11 02:31:28;;;;;;;;;2.00;2.00;;;;;11.96;68.66;101555.50;5094613;27;45399;-87
2022/10/11 02:34:31;;;;;;;;;0.75;0.75;;;;;11.88;68.66;101551.13;5093579;27;45492;-87
2022/10/11 02:37:18;;;;;;;;;2.75;2.75;;;;;11.81;69.08;101554.75;5030997;28;48403;-87
2022/10/11 02:39:50;;;;;;;;;3.00;2.00;;;;;11.13;68.89;101460.03;5036068;28;45451;-87
2022/10/11 02:42:32;;;;;;;;;1.00;1.00;;;;;11.31;68.85;101493.41;5037435;28;45474;-87
2022/10/11 02:45:13;;;;;;;;;2.00;2.00;;;;;10.55;68.92;101360.00;5041007;28;45714;-87
2022/10/11 02:47:41;;;;;;;;;1.50;1.25;;;;;11.14;68.98;101460.91;5033045;28;47100;-87
2022/10/11 02:50:07;;;;;;;;;1.50;1.25;;;;;11.41;68.89;101507.44;5036882;28;45506;-87
2022/10/11 02:52:33;;;;;;;;;0.75;0.75;;;;;11.08;68.47;101467.13;5053282;28;45450;-86
2022/10/11 02:54:59;;;;;;;;;2.00;2.00;;;;;11.73;68.99;101567.16;5035956;28;45455;-87
2022/10/11 02:57:24;;;;;;;;;3.75;2.75;;;;;11.38;68.64;101510.09;5036983;28;46950;-87
2022/10/11 02:59:49;;;;;;;;;2.00;2.00;;;;;11.24;68.82;101488.19;5030959;28;45715;-87
2022/10/11 03:02:15;;;;;;;;;3.50;1.00;;;;;11.13;68.89;101489.16;5035819;28;45364;-87
2022/10/11 03:04:40;;;;;;;;;1.75;1.00;;;;;11.64;69.17;101572.56;5016874;28;45455;-88
2022/10/11 03:07:05;;;;;;;;;3.00;1.50;;;;;11.32;68.49;101523.41;5033415;28;45638;-87
2022/10/11 03:09:31;;;;;;;;;5.00;1.75;;;;;11.07;69.12;101485.66;5035432;28;45769;-87
2022/10/11 03:11:56;;;;;;;;;5.00;2.00;;;;;11.05;68.74;101483.03;5092955;27;45446;-87
2022/10/11 03:14:22;;;;;;;;;4.00;1.00;;;;;11.13;68.33;101480.31;5096056;27;45528;-87
2022/10/11 03:16:48;;;;;;;;;0.00;0.00;;;;;11.16;68.04;101486.47;5064443;27;48378;-87
2022/10/11 03:19:13;;;;;;;;;1.00;1.00;;;;;10.97;68.87;101447.81;5058247;27;45439;-87
2022/10/11 03:21:38;;;;;;;;;1.00;1.00;;;;;11.24;68.34;101494.34;5058750;28;45301;-87
2022/10/11 03:24:04;;;;;;;;;4.00;3.00;;;;;11.40;67.97;101529.50;5077307;27;45346;-87
2022/10/11 03:26:29;;;;;;;;;1.00;1.00;;;;;10.86;67.86;101428.53;5093744;27;48085;-87
2022/10/11 03:28:54;;;;;;;;;2.75;1.00;;;;;10.77;68.34;101414.47;5072410;28;45414;-87
2022/10/11 03:31:22;;;;;;;;;4.00;2.00;;;;;11.20;67.94;101496.16;5076165;27;45572;-87
2022/10/11 03:33:48;;;;;;;;;1.00;1.00;;;;;10.82;68.21;101433.81;5076920;27;45684;-87
2022/10/11 03:36:13;;;;;;;;;3.00;1.75;;;;;11.24;67.90;101499.66;5093689;27;46274;-87
2022/10/11 03:38:38;;;;;;;;;2.25;1.25;;;;;11.63;68.21;101560.19;5095459;27;45479;-87
2022/10/11 03:41:04;;;;;;;;;2.75;1.25;;;;;11.11;67.75;101480.31;5064749;28;45828;-87
2022/10/11 03:43:30;;;;;;;;;1.75;0.75;;;;;11.29;67.40;101515.47;5074723;28;45363;-87
2022/10/11 03:45:55;;;;;;;;;1.50;1.00;;;;;11.06;67.67;101479.50;5056482;27;46466;-87
2022/10/11 03:48:21;;;;;;;;;3.25;1.00;;;;;11.39;67.12;101541.00;5083941;27;45526;-87
2022/10/11 03:50:47;;;;;;;;;4.00;2.25;;;;;10.44;67.46;101378.56;5095558;27;45394;-86
2022/10/11 03:53:13;;;;;;;;;4.50;2.00;;;;;11.25;67.58;101516.38;5077611;27;45651;-87
2022/10/11 03:55:40;;;;;;;;;2.50;0.50;;;;;10.80;67.51;101454.13;5077635;27;48207;-87
2022/10/11 03:58:06;;;;;;;;;3.00;2.75;;;;;11.15;67.54;101524.41;5074090;28;45484;-87
2022/10/11 04:00:32;;;;;;;;;1.00;1.00;;;;;10.97;68.01;101493.66;5080419;28;45382;-88
2022/10/11 04:02:58;;;;;;;;;2.50;1.50;;;;;11.47;67.02;101565.63;5059912;28;45417;-87
2022/10/11 04:05:23;;;;;;;;;3.00;1.00;;;;;11.27;66.94;101547.25;5075150;28;45457;-87
2022/10/11 04:07:49;;;;;;;;;1.75;1.50;;;;;11.47;67.21;101586.78;5060171;27;45469;-88
2022/10/11 04:10:14;;;;;;;;;1.00;1.00;;;;;11.06;67.15;101516.53;5077073;27;45431;-88
2022/10/11 04:12:40;;;;;;;;;1.50;1.50;;;;;11.54;67.21;101604.41;5086458;27;45414;-87
2022/10/11 04:15:06;;;;;;;;;1.00;1.00;;;;;11.28;67.44;101558.72;5090267;27;46819;-87
2022/10/11 04:17:32;;;;;;;;;1.00;1.00;;;;;11.50;66.87;101602.66;5089801;27;45458;-87
2022/10/11 04:19:57;;;;;;;;;0.00;0.00;;;;;10.88;67.24;101519.31;5086317;27;45451;-86
2022/10/11 04:22:23;;;;;;;;;1.25;1.00;;;;;10.86;67.45;101507.88;5056390;28;45339;-86
2022/10/11 04:24:48;;;;;;;;;2.00;2.00;;;;;10.54;67.61;101461.34;5074020;28;45530;-88
2022/10/11 04:27:14;;;;;;;;;8.00;3.00;;;;;10.25;67.63;101412.16;5076495;27;45394;-88
2022/10/11 04:29:39;;;;;;;;;2.00;1.00;;;;;11.15;67.56;101572.03;5070567;28;45304;-86
2022/10/11 04:32:04;;;;;;;;;4.25;2.75;;;;;11.40;67.63;101610.69;5071525;28;45592;-87
2022/10/11 04:34:30;;;;;;;;;1.00;1.00;;;;;10.94;66.97;101537.78;5066620;28;47108;-88
2022/10/11 04:36:55;;;;;;;;;3.00;1.50;;;;;11.24;67.20;101594.03;5062474;28;45461;-87
2022/10/11 04:39:21;;;;;;;;;2.00;2.00;;;;;10.48;67.36;101480.75;5056982;28;45477;-87
2022/10/11 04:41:46;;;;;;;;;1.25;1.25;;;;;10.68;67.16;101517.66;5074135;28;45399;-87
2022/10/11 04:44:11;;;;;;;;;0.75;0.75;;;;;9.88;67.32;101392.03;5055724;28;47883;-87
2022/10/11 04:46:36;;;;;;;;;1.50;0.50;;;;;10.55;67.19;101518.59;5056805;28;45421;-87
2022/10/11 04:49:02;;;;;;;;;2.50;2.50;;;;;10.52;67.65;101513.31;5067368;27;45441;-87
2022/10/11 04:51:27;;;;;;;;;1.00;1.00;;;;;10.26;67.84;101479.94;5076605;27;45406;-87
2022/10/11 04:53:53;;;;;;;;;2.75;2.00;;;;;10.17;67.67;101469.41;5079820;27;46581;-87
2022/10/11 04:56:18;;;;;;;;;3.00;1.75;;;;;10.36;67.86;101521.31;5097381;27;45409;-87
2022/10/11 04:58:48;;;;;;;;;2.00;1.00;;;;;10.95;67.89;101618.91;5098080;27;45552;-87
2022/10/11 05:01:14;;;;;;;;;2.00;0.75;;;;;9.61;68.46;101406.25;5082636;27;45340;-87
2022/10/11 05:03:40;;;;;;;;;4.00;2.50;;;;;10.20;68.93;101506.38;5101235;27;47695;-87
2022/10/11 05:06:05;;;;;;;;;3.25;1.75;;;;;10.34;68.46;101546.91;5097527;27;45895;-87
2022/10/11 05:08:30;;;;;;;;;2.00;1.00;;;;;10.19;68.30;101520.47;5093499;27;45500;-87
2022/10/11 05:11:16;;;;;;;;;1.75;1.00;;;;;10.54;68.35;101580.31;5060320;28;45524;-88
2022/10/11 05:13:42;;;;;;;;;2.50;1.00;;;;;9.43;68.56;101413.31;5062203;28;48541;-87
2022/10/11 05:16:08;;;;;;;;;3.00;1.75;;;;;10.00;68.97;101530.22;5058962;28;45474;-87
2022/10/11 05:18:33;;;;;;;;;2.00;2.00;;;;;9.30;69.30;101410.69;5063452;27;45564;-88
2022/10/11 05:21:00;;;;;;;;;0.50;0.50;;;;;10.55;69.36;101621.69;5079601;27;45510;-87
2022/10/11 05:23:26;;;;;;;;;1.50;1.50;;;;;9.86;69.88;101517.06;5079938;27;47193;-88
2022/10/11 05:25:52;;;;;;;;;4.25;1.25;;;;;10.52;69.89;101627.84;5078829;27;45694;-88
2022/10/11 05:28:17;;;;;;;;;4.25;1.75;;;;;10.00;70.12;101552.22;5095034;27;45477;-87
2022/10/11 05:30:43;;;;;;;;;4.00;2.50;;;;;9.32;69.96;101428.28;5081264;27;45298;-86
2022/10/11 05:33:08;;;;;;;;;2.25;2.00;;;;;9.34;69.83;101428.28;5100100;27;46040;-87
2022/10/11 05:35:34;;;;;;;;;2.75;2.75;;;;;9.60;69.96;101496.84;5098847;27;45382;-87
2022/10/11 05:37:59;;;;;;;;;2.50;1.25;;;;;9.24;69.55;101430.03;5075428;27;45358;-87
2022/10/11 05:40:27;;;;;;;;;4.75;2.00;;;;;10.26;69.75;101596.19;5080610;27;45576;-86
2022/10/11 05:42:53;;;;;;;;;3.50;2.00;;;;;9.79;69.54;101534.66;5090736;27;45809;-87
2022/10/11 05:45:18;;;;;;;;;3.25;2.00;;;;;10.38;69.77;101641.13;5093820;27;46095;-87
2022/10/11 05:47:43;;;;;;;;;3.25;1.25;;;;;9.92;69.66;101554.88;5100240;27;45563;-88
2022/10/11 05:50:09;;;;;;;;;2.50;1.00;;;;;9.73;70.02;101532.03;5094895;27;45604;-88
2022/10/11 05:52:34;;;;;;;;;5.00;2.25;;;;;9.07;69.50;101409.81;5078101;28;47950;-89
2022/10/11 05:54:59;;;;;;;;;3.75;2.00;;;;;9.43;69.70;101486.31;5071946;28;45412;-89
2022/10/11 05:57:25;;;;;;;;;1.25;1.00;;;;;9.95;70.42;101568.06;5071053;28;45362;-88
2022/10/11 05:59:51;;;;;;;;;1.25;1.25;;;;;9.58;69.80;101506.50;5064197;27;45320;-92
2022/10/11 06:02:17;;;;;;;;;4.50;2.00;;;;;9.50;70.33;101492.47;5064748;28;47038;-91
2022/10/11 06:04:42;;;;;;;;;2.00;2.00;;;;;9.69;69.62;101520.59;5062834;28;46107;-89
2022/10/11 06:07:07;;;;;;;;;1.75;1.75;;;;;9.67;69.80;101524.09;5060938;28;45317;-89
2022/10/11 06:09:36;;;;;;;;;5.50;2.00;;;;;9.67;69.53;101525.00;5081690;28;45351;-88
2022/10/11 06:12:01;;;;;;;;;2.00;2.00;;;;;9.48;69.18;101510.06;5079004;27;47304;-89
2022/10/11 06:14:26;;;;;;;;;2.00;2.00;;;;;9.00;70.16;101423.91;5097936;27;45401;-89
2022/10/11 06:16:53;;;;;;;;;3.00;2.00;;;;;9.39;70.28;101479.28;5080240;27;45509;-88
2022/10/11 06:19:18;;;;;;;;;2.25;2.00;;;;;9.10;70.22;101418.63;5098922;27;45367;-87
2022/10/11 06:21:44;;;;;;;;;3.00;2.75;;;;;10.31;69.48;101652.56;5072206;27;47454;-86
2022/10/11 06:24:11;;;;;;;;;2.00;1.00;;;;;10.07;68.75;101590.09;5075063;27;45417;-87
2022/10/11 06:26:36;;;;;;;;;2.00;2.00;;;;;10.41;68.98;101648.16;5058521;28;45376;-88
2022/10/11 06:29:02;;;;;;;;;2.25;2.00;;;;;9.15;68.84;101432.69;5060574;28;45345;-87
2022/10/11 06:31:27;;;;;;;;;1.50;1.25;;;;;9.82;68.97;101537.28;5059378;28;47129;-86
2022/10/11 06:33:52;;;;;;;;;3.75;2.50;;;;;9.64;68.83;101506.53;5078282;27;45362;-86
2022/10/11 06:36:18;;;;;;;;;2.00;2.00;;;;;9.98;68.81;101564.56;5095863;27;45411;-86
2022/10/11 06:38:44;;;;;;;;;2.50;2.00;;;;;9.28;68.46;101450.28;5096017;27;45507;-85
2022/10/11 06:41:21;;;;;;;;;2.00;2.00;;;;;10.59;68.82;101648.13;5094719;27;45437;-87
2022/10/11 06:43:48;;;;;;;;;4.50;2.00;;;;;10.18;67.96;101582.13;5095582;27;45656;-85
2022/10/11 06:46:14;;;;;;;;;6.75;2.50;;;;;10.01;67.96;101553.13;5100578;27;45566;-89
2022/10/11 06:48:42;;;;;;;;;2.00;2.00;;;;;10.64;68.43;101656.94;5070032;27;45406;-86
2022/10/11 06:51:07;;;;;;;;;5.75;3.50;;;;;9.76;68.40;101503.88;5081294;27;46141;-86
2022/10/11 06:53:33;;;;;;;;;3.00;3.00;;;;;10.10;67.79;101559.25;5075984;27;45320;-87
2022/10/11 06:56:03;;;;;;;;;6.25;3.00;;;;;10.07;68.03;101566.31;5065901;28;45850;-87
2022/10/11 06:58:28;;;;;;;;;3.00;3.00;;;;;10.41;68.20;101604.09;5093213;27;45327;-87
2022/10/11 07:00:54;;;;;;;;;2.50;2.00;;;;;9.74;68.07;101508.25;5069411;27;45934;-86
2022/10/11 07:03:19;;;;;;;;;3.25;2.25;;;;;10.76;67.46;101650.69;5092267;27;45427;-86
2022/10/11 07:05:44;;;;;;;;;1.75;1.75;;;;;10.43;67.30;101593.53;5087821;27;44819;-88
2022/10/11 07:08:10;;;;;;;;;3.50;3.50;;;;;10.17;66.76;101532.81;5076110;28;44835;-89
2022/10/11 07:10:35;;;;;;;;;3.50;2.50;;;;;10.51;67.01;101590.84;5064239;27;46919;-86
2022/10/11 07:14:08;;;;;;;;;4.00;2.75;;;;;10.98;66.93;101667.38;5146558;27;45535;-90
2022/10/11 07:16:35;;;;;;;;;2.50;2.50;;;;;10.76;66.93;101623.38;5112658;27;45423;-90
2022/10/11 07:19:02;;;;;;;;;5.00;3.00;;;;;10.94;66.26;101640.94;5110499;27;45422;-93
2022/10/11 07:21:29;;;;;;;;;4.00;3.00;;;;;11.20;65.78;101678.75;5113953;27;45561;-88
2022/10/11 07:23:54;;;;;;;;;2.25;2.00;;;;;10.45;66.13;101550.34;5132697;27;47229;-88
2022/10/11 07:26:33;;;;;;;;;3.50;3.00;;;;;10.66;65.66;101588.19;5112907;27;45557;-87
2022/10/11 07:29:00;;;;;;;;;3.50;3.25;;;;;10.51;65.09;101551.22;5131133;27;45498;-88
2022/10/11 07:31:27;;;;;;;;;3.25;3.25;;;;;10.73;65.18;101575.78;5113436;27;45662;-87
2022/10/11 07:33:52;;;;;;;;;4.00;4.00;;;;;10.44;64.29;101522.16;5130773;27;45460;-87
2022/10/11 07:36:18;;;;;;;;;2.75;2.75;;;;;11.54;64.82;101683.84;5114283;27;45532;-87
2022/10/11 07:38:45;;;;;;;;;3.50;3.50;;;;;11.16;64.56;101615.25;5107555;27;45504;-88
2022/10/11 07:41:11;;;;;;;;;2.00;2.00;;;;;11.64;63.70;101697.88;5120776;27;45579;-87
2022/10/11 07:43:37;;;;;;;;;2.00;2.00;;;;;11.22;63.47;101607.28;5112023;27;47280;-87
2022/10/11 07:46:03;;;;;;;;;4.00;1.50;;;;;11.35;62.81;101623.94;5115818;27;45871;-87
2022/10/11 07:48:30;;;;;;;;;4.00;2.00;;;;;10.68;63.10;101504.44;5115443;27;45337;-87
2022/10/11 07:51:02;;;;;;;;;3.50;3.25;;;;;11.73;62.01;101659.88;5114775;27;45548;-87
2022/10/11 07:53:28;;;;;;;;;4.25;3.75;;;;;11.49;62.53;101606.22;5121607;27;47775;-87
2022/10/11 07:55:53;;;;;;;;;4.00;3.00;;;;;11.41;61.49;101580.69;5131877;27;45531;-89
2022/10/11 07:58:19;;;;;;;;;3.75;2.00;;;;;12.23;60.97;101710.72;5114585;27;45412;-85
2022/10/11 08:00:44;;;;;;;;;3.50;1.75;;;;;11.94;61.41;101650.03;5113397;27;45296;-88
2022/10/11 08:03:10;;;;;;;;;3.00;2.00;;;;;12.73;61.08;101703.16;5114618;27;46871;-88
2022/10/11 08:05:37;;;;;;;;;4.25;2.00;;;;;12.56;59.09;101582.22;5123894;27;45474;-87
2022/10/11 08:08:03;;;;;;;;;4.00;3.00;;;;;13.23;57.22;101582.19;5141224;27;45331;-87
2022/10/11 08:10:29;;;;;;;;;1.00;1.00;;;;;14.16;55.50;101625.84;5116489;27;45489;-89
2022/10/11 08:12:54;;;;;;;;;3.75;3.75;;;;;14.60;53.48;101608.16;5113617;27;47859;-88
2022/10/11 08:15:20;;;;;;;;;1.75;1.75;;;;;15.10;52.03;101637.31;5113421;27;45811;-87
2022/10/11 08:17:45;;;;;;;;;2.25;2.25;;;;;14.55;52.45;101544.41;5130625;27;45471;-86
2022/10/11 08:20:11;;;;;;;;;8.50;3.00;;;;;15.23;52.57;101629.94;5114315;27;45511;-88
2022/10/11 08:22:37;;;;;;;;;5.50;4.00;;;;;14.75;52.62;101551.13;5110493;27;46698;-87
2022/10/11 08:25:03;;;;;;;;;3.25;2.00;;;;;15.73;52.20;101659.81;5106631;27;45567;-87
2022/10/11 08:27:28;;;;;;;;;4.00;4.00;;;;;15.84;50.89;101602.75;5102465;27;45430;-87
2022/10/11 08:29:54;;;;;;;;;3.00;3.00;;;;;16.13;49.49;101562.84;5095501;27;45349;-87
2022/10/11 08:32:19;;;;;;;;;2.75;2.75;;;;;17.37;48.59;101698.13;5094762;27;47341;-86
2022/10/11 08:34:44;;;;;;;;;2.00;2.00;;;;;17.34;48.56;101640.31;5096737;27;45554;-88
2022/10/11 08:37:10;;;;;;;;;4.50;2.75;;;;;18.00;47.46;101695.25;5101047;27;45893;-87
2022/10/11 08:39:35;;;;;;;;;3.75;2.50;;;;;18.20;46.88;101619.66;5110205;27;45435;-87
2022/10/11 08:42:21;;;;;;;;;4.00;4.00;;;;;19.07;44.46;101681.66;5101188;27;46787;-87
2022/10/11 08:44:53;;;;;;;;;2.50;2.50;;;;;19.46;43.90;101705.16;5117640;27;45361;-87
2022/10/11 08:47:41;;;;;;;;;4.75;2.25;;;;;19.48;42.87;101625.53;5099394;27;45327;-88
2022/10/11 08:50:16;;;;;;;;;3.00;3.00;;;;;19.96;43.09;101623.59;5118022;27;45620;-87
2022/10/11 08:52:52;;;;;;;;;3.75;2.75;;;;;20.40;41.65;101666.41;5100027;27;47100;-88
2022/10/11 08:55:25;;;;;;;;;3.25;3.25;;;;;20.77;41.45;101697.06;5096977;27;45467;-88
2022/10/11 08:57:54;;;;;;;;;4.75;2.75;;;;;20.75;41.77;101710.53;5100883;27;45592;-87
2022/10/11 09:00:20;;;;;;;;;3.25;3.25;;;;;20.92;40.17;101714.25;5098927;27;45460;-87
2022/10/11 09:02:58;;;;;;;;;6.50;4.75;;;;;20.93;40.13;101713.31;5097379;27;47428;-87
2022/10/11 09:05:28;;;;;;;;;4.50;3.00;;;;;21.06;40.56;101719.88;5098414;27;45438;-87
2022/10/11 09:08:05;;;;;;;;;4.50;1.50;;;;;20.56;39.61;101596.81;5116971;27;45433;-87
2022/10/11 09:10:58;;;;;;;;;3.00;3.00;;;;;20.27;39.90;101539.06;5084121;27;45585;-87
2022/10/11 09:13:52;;;;;;;;;4.00;2.25;;;;;21.30;39.73;101711.59;5115848;27;45412;-89
2022/10/11 09:16:50;;;;;;;;;3.00;1.75;;;;;21.35;39.53;101709.59;5117309;27;45482;-88
2022/10/11 09:19:54;;;;;;;;;4.75;3.00;;;;;21.55;39.32;101708.66;4997504;28;45510;-88
2022/10/11 09:22:48;;;;;;;;;2.50;2.00;;;;;21.77;39.46;101711.19;4955538;28;45721;-89
2022/10/11 09:25:32;;;;;;;;;3.00;3.00;;;;;21.63;38.22;101708.28;4957749;28;48407;-88
2022/10/11 09:28:19;;;;;;;;;6.75;4.00;;;;;21.38;39.10;101708.56;4955598;28;45538;-90
2022/10/11 09:30:51;;;;;;;;;1.75;1.75;;;;;21.69;39.11;101678.41;4954214;28;45298;-89
2022/10/11 09:33:20;;;;;;;;;3.50;3.50;;;;;21.92;38.19;101633.31;4948787;28;45470;-88
2022/10/11 09:35:48;;;;;;;;;3.25;3.25;;;;;22.30;37.20;101617.84;4936401;28;47880;-88
2022/10/11 09:38:42;;;;;;;;;3.00;3.00;;;;;23.29;36.68;101703.31;4955228;28;45607;-87
2022/10/11 09:41:30;;;;;;;;;4.75;2.00;;;;;23.02;35.93;101634.66;4954588;28;45433;-88
2022/10/11 09:43:55;;;;;;;;;7.00;3.75;;;;;22.47;36.01;101554.19;4956345;28;45584;-88
2022/10/11 09:46:30;;;;;;;;;3.50;1.75;;;;;23.29;36.78;101696.13;4958350;28;46896;-89
2022/10/11 09:48:56;;;;;;;;;5.75;4.75;;;;;22.93;35.76;101634.28;4961579;28;45502;-87
2022/10/11 09:51:26;;;;;;;;;6.50;3.75;;;;;23.56;36.48;101685.59;4961934;28;45430;-88
2022/10/11 09:54:04;;;;;;;;;5.00;5.00;;;;;23.49;35.33;101607.78;4958064;28;45587;-88
2022/10/11 09:56:31;;;;;;;;;3.00;3.00;;;;;23.78;34.62;101624.97;4991525;28;45546;-86
2022/10/11 09:59:25;;;;;;;;;4.25;3.00;;;;;24.19;35.27;101686.47;5025382;27;45486;-87
2022/10/11 10:02:15;;;;;;;;;5.00;4.00;;;;;24.22;35.40;101678.16;5116172;27;45326;-87
2022/10/11 10:04:56;;;;;;;;;3.75;3.75;;;;;24.26;35.85;101678.84;5117707;27;45527;-87
2022/10/11 10:07:22;;;;;;;;;9.25;8.50;;;;;24.20;34.95;101661.19;5099912;27;47335;-89
2022/10/11 10:09:48;;;;;;;;;4.50;3.25;;;;;23.75;34.81;101560.41;5099828;27;45421;-88
2022/10/11 10:12:20;;;;;;;;;4.25;4.25;;;;;24.65;35.42;101680.97;5105474;27;45444;-88
2022/10/11 10:14:57;;;;;;;;;5.25;4.00;;;;;24.14;34.49;101604.84;5102912;27;45589;-86
2022/10/11 10:17:22;;;;;;;;;5.25;4.25;;;;;23.61;35.73;101609.78;5101064;27;48460;-87
2022/10/11 10:19:52;;;;;;;;;3.25;3.00;;;;;23.68;35.95;101650.75;5109794;27;45578;-87
2022/10/11 10:22:26;;;;;;;;;5.00;4.25;;;;;23.47;36.49;101680.72;5100625;27;45454;-87
2022/10/11 10:24:53;;;;;;;;;5.25;4.75;;;;;23.08;36.47;101690.06;5118395;27;45462;-87
2022/10/11 10:27:25;;;;;;;;;4.00;4.00;;;;;22.02;37.98;101586.16;5099951;27;47540;-87
2022/10/11 10:30:08;;;;;;;;;6.25;4.00;;;;;22.16;39.17;101688.56;5113754;27;45518;-87
2022/10/11 10:32:52;;;;;;;;;3.00;3.00;;;;;21.63;39.75;101690.31;5097385;27;45523;-87
2022/10/11 10:35:17;;;;;;;;;4.25;4.25;;;;;21.09;41.09;101692.00;5118306;27;45541;-87
2022/10/11 10:37:49;;;;;;;;;6.00;5.50;;;;;20.18;41.28;101618.19;5095224;27;45469;-86
2022/10/11 10:40:30;;;;;;;;;9.00;8.25;;;;;20.27;41.93;101692.03;5083990;27;45629;-87
2022/10/11 10:42:55;;;;;;;;;6.00;5.00;;;;;19.97;42.70;101671.81;5098256;27;45504;-86
2022/10/11 10:45:28;;;;;;;;;7.50;5.50;;;;;19.64;43.10;101650.78;5096525;27;45448;-86
2022/10/11 10:48:11;;;;;;;;;4.00;4.00;;;;;19.21;43.75;101601.63;5090722;27;47708;-87
2022/10/11 10:50:37;;;;;;;;;3.25;3.25;;;;;19.60;44.02;101691.22;5097119;27;45838;-86
2022/10/11 10:53:14;;;;;;;;;4.50;4.50;;;;;19.41;44.25;101691.09;5098713;27;45464;-88
2022/10/11 10:56:11;;;;;;;;;5.75;3.50;;;;;19.17;44.42;101672.34;5097661;27;45393;-87
2022/10/11 10:58:48;;;;;;;;;12.25;10.75;;;;;19.20;44.54;101693.66;5078140;27;47118;-87
2022/10/11 11:01:22;;;;;;;;;8.00;4.50;;;;;18.38;45.62;101575.31;5116824;27;45365;-88
2022/10/11 11:04:05;;;;;;;;;5.25;4.75;;;;;19.30;44.90;101694.19;5098690;27;45544;-86
2022/10/11 11:06:50;;;;;;;;;4.50;3.75;;;;;19.68;44.70;101689.09;5097792;27;45332;-89
2022/10/11 11:09:48;;;;;;;;;5.00;5.00;;;;;19.77;43.24;101602.94;5089481;27;48246;-89
2022/10/11 11:12:45;;;;;;;;;7.75;6.75;;;;;19.81;42.06;101529.44;5110110;27;45418;-85
2022/10/11 11:15:21;;;;;;;;;8.00;5.25;;;;;21.04;41.39;101625.00;5124560;27;45356;-87
2022/10/11 11:17:55;;;;;;;;;6.75;5.25;;;;;21.21;41.38;101655.59;5100545;27;45382;-86
2022/10/11 11:20:33;;;;;;;;;5.00;5.00;;;;;21.15;40.91;101674.69;5096911;27;46973;-86
2022/10/11 11:23:07;;;;;;;;;5.00;3.75;;;;;21.21;41.45;101677.09;5116146;27;45560;-86
2022/10/11 11:25:46;;;;;;;;;5.75;5.00;;;;;21.24;40.79;101679.63;5114083;27;45572;-87
2022/10/11 11:28:31;;;;;;;;;5.75;5.00;;;;;21.34;41.79;101680.09;5096329;27;45698;-85
2022/10/11 11:31:18;;;;;;;;;6.75;4.25;;;;;20.83;40.19;101550.81;5114097;27;46093;-86
2022/10/11 11:34:17;;;;;;;;;4.25;3.75;;;;;21.88;40.34;101664.91;5115948;27;45406;-86
2022/10/11 11:36:56;;;;;;;;;4.50;3.75;;;;;21.74;39.21;101611.81;5096720;27;45568;-86
2022/10/11 11:39:35;;;;;;;;;4.00;3.50;;;;;21.79;39.99;101607.03;5098598;27;45382;-86
2022/10/11 11:42:06;;;;;;;;;5.00;2.00;;;;;22.15;38.86;101608.78;5114023;27;47188;-86
2022/10/11 11:44:36;;;;;;;;;5.50;5.50;;;;;22.56;38.63;101566.28;5104654;27;44948;-86